Terminal Aerodrome Forecast
Issued by NWS

Home | Current Version | Previous Version | Graphics & Text | Print | Product List | Glossary On
Versions: 1 2 3 4 5 6 7 8 9 10 11 12
045
FTUS43 KABR 171126
TAFMBG
TAF
KMBG 171126Z 1712/1812 VRB05KT P6SM SKC WS020/31035KT
     FM171800 29013KT P6SM SCT250 WS020/31040KT
     FM180200 29009KT P6SM SCT250
     FM180900 VRB04KT P6SM FEW200=

USA.gov is the U.S. government's official web portal to all federal, state and local government web resources and services.